KSQI/SQI METAR and TAF weather

Enter ICAO airport designator
Station Type Date Time Source
KSQI METAR 2022/06/28 23:56 UTC NOAA

KSQI 282356Z 23010G16KT 10SM CLR 27/13 A3011 RMK AO2 SLP061 T02670133 10283 20267 58013


Station Type Date Time Source
KSQI Decoded METAR 2022/06/28 23:56 UTC NOAA

Sterling Rockfalls, IL, United States (KSQI) 41-45N 089-40W
Jun 28, 2022 - 07:56 PM EDT / 2022.06.28 2356 UTC
Wind: from the SW (230 degrees) at 12 MPH (10 KT) gusting to 18 MPH (16 KT):0
Visibility: 10 mile(s):0
Sky conditions: clear
Temperature: 80.1 F (26.7 C)
Dew Point: 55.9 F (13.3 C)
Relative Humidity: 43%
Pressure (altimeter): 30.11 in. Hg (1019 hPa)
Pressure tendency: 0.04 inches (1.3 hPa) lower than three hours ago
ob: KSQI 282356Z 23010G16KT 10SM CLR 27/13 A3011 RMK AO2 SLP061 T02670133 10283 20267 58013
cycle: 0

Station Type Date Time Source
KSQI TAF UTC NOAA

Error!

Example: see airport list